createdAt,value
2023-03-15T00:01:35.681Z,4.57
2023-03-15T00:04:02.146Z,4.56
2023-03-15T00:06:28.636Z,4.53
2023-03-15T00:08:55.214Z,4.50
2023-03-15T00:11:21.650Z,4.51
2023-03-15T00:13:48.055Z,4.49
2023-03-15T00:16:17.510Z,4.48
2023-03-15T00:18:47.889Z,4.45
2023-03-15T00:21:15.220Z,4.43
2023-03-15T00:23:42.055Z,4.42
2023-03-15T00:26:08.503Z,4.35
2023-03-15T00:28:34.911Z,4.39
2023-03-15T00:31:16.921Z,4.41
2023-03-15T00:33:44.244Z,4.39
2023-03-15T00:36:11.730Z,4.40
2023-03-15T00:38:40.733Z,4.38
2023-03-15T00:41:08.832Z,4.45
2023-03-15T00:43:35.743Z,4.45
2023-03-15T00:46:03.346Z,4.49
2023-03-15T00:48:29.837Z,4.50
2023-03-15T00:51:09.970Z,4.55
2023-03-15T00:53:37.256Z,4.60
2023-03-15T00:56:06.541Z,4.64
2023-03-15T00:58:32.933Z,4.71
2023-03-15T01:00:59.632Z,4.74
2023-03-15T01:03:26.176Z,4.75
2023-03-15T01:05:52.736Z,4.74
2023-03-15T01:08:19.275Z,4.73
2023-03-15T01:10:45.734Z,4.73
2023-03-15T01:13:12.131Z,4.73
2023-03-15T01:15:38.517Z,4.70
2023-03-15T01:18:04.930Z,4.69
2023-03-15T01:20:31.305Z,4.68
2023-03-15T01:22:57.633Z,4.66
2023-03-15T01:25:26.995Z,4.62
2023-03-15T01:27:53.441Z,4.59
2023-03-15T01:30:19.934Z,4.58
2023-03-15T01:32:46.385Z,4.54
2023-03-15T01:35:13.010Z,4.58
2023-03-15T01:37:39.368Z,4.59
2023-03-15T01:40:06.608Z,4.60
2023-03-15T01:42:32.961Z,4.65
2023-03-15T01:45:00.061Z,4.68
2023-03-15T01:47:28.254Z,4.71
2023-03-15T01:50:01.610Z,4.72
2023-03-15T01:52:36.074Z,4.75
2023-03-15T01:55:11.650Z,4.75
2023-03-15T01:57:56.465Z,4.77
2023-03-15T02:00:23.307Z,4.75
2023-03-15T02:03:04.292Z,4.77
2023-03-15T02:05:37.712Z,4.69
2023-03-15T02:08:07.417Z,4.74
2023-03-15T02:10:43.919Z,4.73
2023-03-15T02:13:13.120Z,4.68
2023-03-15T02:15:46.453Z,4.67
2023-03-15T02:18:15.164Z,4.67
2023-03-15T02:21:01.874Z,4.67
2023-03-15T02:23:29.309Z,4.65
2023-03-15T02:26:07.777Z,4.63
2023-03-15T02:28:34.795Z,4.63
2023-03-15T02:31:01.551Z,4.62
2023-03-15T02:33:33.684Z,4.60
2023-03-15T02:36:12.083Z,4.58
2023-03-15T02:38:38.561Z,4.54
2023-03-15T02:41:05.789Z,4.54
2023-03-15T02:43:36.925Z,4.51
2023-03-15T02:46:04.460Z,4.49
2023-03-15T02:48:33.599Z,4.48
2023-03-15T02:51:00.033Z,4.47
2023-03-15T02:53:26.458Z,4.47
2023-03-15T02:55:52.887Z,4.48
2023-03-15T02:58:19.296Z,4.47
2023-03-15T03:00:45.702Z,4.45
2023-03-15T03:03:12.141Z,4.46
2023-03-15T03:05:38.524Z,4.43
2023-03-15T03:08:05.254Z,4.43
2023-03-15T03:10:31.779Z,4.43
2023-03-15T03:12:58.591Z,4.39
2023-03-15T03:15:25.090Z,4.37
2023-03-15T03:17:51.475Z,4.35
2023-03-15T03:20:17.960Z,4.36
2023-03-15T03:22:45.496Z,4.31
2023-03-15T03:25:12.801Z,4.30
2023-03-15T03:27:40.667Z,4.30
2023-03-15T03:30:11.416Z,4.29
2023-03-15T03:32:37.843Z,4.29
2023-03-15T03:35:04.473Z,4.26
2023-03-15T03:37:31.029Z,4.22
2023-03-15T03:39:58.519Z,4.19
2023-03-15T03:42:25.075Z,4.13
2023-03-15T03:44:51.728Z,4.11
2023-03-15T03:47:18.237Z,4.06
2023-03-15T03:49:44.812Z,4.02
2023-03-15T03:52:11.363Z,3.95
2023-03-15T03:54:37.807Z,3.93
2023-03-15T03:57:04.640Z,3.92
2023-03-15T03:59:31.066Z,3.92
2023-03-15T04:01:57.466Z,3.89
2023-03-15T04:04:26.260Z,3.87
2023-03-15T04:06:54.560Z,3.81
2023-03-15T04:09:21.973Z,3.74
2023-03-15T04:11:48.370Z,3.70
2023-03-15T04:14:15.038Z,3.72
2023-03-15T04:16:41.586Z,3.76
2023-03-15T04:19:12.956Z,3.77
2023-03-15T04:21:39.517Z,3.79
2023-03-15T04:24:07.413Z,3.80
2023-03-15T04:26:36.703Z,3.81
2023-03-15T04:29:04.216Z,3.84
2023-03-15T04:31:37.691Z,3.86
2023-03-15T04:34:04.835Z,3.87
2023-03-15T04:36:31.274Z,3.87
2023-03-15T04:39:06.027Z,3.90
2023-03-15T04:41:34.740Z,3.89
2023-03-15T04:44:03.571Z,3.90
2023-03-15T04:46:32.401Z,3.91
2023-03-15T04:48:58.880Z,3.93
2023-03-15T04:51:25.252Z,3.94
2023-03-15T04:53:51.735Z,3.94
2023-03-15T04:56:18.153Z,3.92
2023-03-15T04:58:44.560Z,3.93
2023-03-15T05:01:11.730Z,3.93
2023-03-15T05:03:38.149Z,3.92
2023-03-15T05:06:08.279Z,3.88
2023-03-15T05:08:36.439Z,3.84
2023-03-15T05:11:08.461Z,3.73
2023-03-15T05:13:35.129Z,3.72
2023-03-15T05:16:01.558Z,3.72
2023-03-15T05:18:28.435Z,3.73
2023-03-15T05:20:57.698Z,3.76
2023-03-15T05:23:24.700Z,3.80
2023-03-15T05:25:55.872Z,3.83
2023-03-15T05:28:24.104Z,3.88
2023-03-15T05:30:52.188Z,3.91
2023-03-15T05:33:20.198Z,3.94
2023-03-15T05:35:46.818Z,3.96
2023-03-15T05:38:14.400Z,3.94
2023-03-15T05:40:45.551Z,3.94
2023-03-15T05:43:12.708Z,3.93
2023-03-15T05:45:40.817Z,3.90
2023-03-15T05:48:07.353Z,3.91
2023-03-15T05:50:33.896Z,3.94
2023-03-15T05:53:00.389Z,3.95
2023-03-15T05:55:26.883Z,3.95
2023-03-15T05:57:53.242Z,3.94
2023-03-15T06:00:20.428Z,3.95
2023-03-15T06:02:47.079Z,3.91
2023-03-15T06:05:13.718Z,3.88
2023-03-15T06:07:40.152Z,3.79
2023-03-15T06:10:07.137Z,3.79
2023-03-15T06:12:33.532Z,3.78
2023-03-15T06:15:02.892Z,3.77
2023-03-15T06:17:29.270Z,3.80
2023-03-15T06:19:55.707Z,3.82
2023-03-15T06:22:24.388Z,3.81
2023-03-15T06:24:50.789Z,3.82
2023-03-15T06:27:21.902Z,3.81
2023-03-15T06:29:50.179Z,3.83
2023-03-15T06:32:16.670Z,3.84
2023-03-15T06:34:43.015Z,3.81
2023-03-15T06:37:09.497Z,3.82
2023-03-15T06:39:35.914Z,3.78
2023-03-15T06:42:03.622Z,3.73
2023-03-15T06:44:30.050Z,3.76
2023-03-15T06:46:57.609Z,3.78
2023-03-15T06:49:25.087Z,3.83
2023-03-15T06:51:52.017Z,4.09
2023-03-15T06:54:18.582Z,4.71
2023-03-15T06:56:45.011Z,5.26
2023-03-15T06:59:11.526Z,5.77
2023-03-15T07:01:37.999Z,6.15
2023-03-15T07:04:07.202Z,6.52
2023-03-15T07:06:34.917Z,7.10
2023-03-15T07:09:02.215Z,7.53
2023-03-15T07:11:28.681Z,7.88
2023-03-15T07:13:55.100Z,8.18
2023-03-15T07:16:21.487Z,8.48
2023-03-15T07:18:47.853Z,8.83
2023-03-15T07:21:14.420Z,9.14
2023-03-15T07:23:40.853Z,9.44
2023-03-15T07:26:07.389Z,9.77
2023-03-15T07:28:33.842Z,10.11
2023-03-15T07:31:06.176Z,10.30
2023-03-15T07:33:35.854Z,10.37
2023-03-15T07:36:04.332Z,10.44
2023-03-15T07:38:31.171Z,10.19
2023-03-15T07:40:58.637Z,9.76
2023-03-15T07:43:25.261Z,9.35
2023-03-15T07:45:51.740Z,9.01
2023-03-15T07:48:18.543Z,8.60
2023-03-15T07:50:45.876Z,8.37
2023-03-15T07:53:12.295Z,8.13
2023-03-15T07:55:38.725Z,7.96
2023-03-15T07:58:05.867Z,7.81
2023-03-15T08:00:32.607Z,7.67
2023-03-15T08:02:59.353Z,7.55
2023-03-15T08:05:28.512Z,7.51
2023-03-15T08:07:56.584Z,7.42
2023-03-15T08:10:23.272Z,7.41
2023-03-15T08:12:49.705Z,7.80
2023-03-15T08:15:16.452Z,8.53
2023-03-15T08:17:43.012Z,9.34
2023-03-15T08:20:20.323Z,10.08
2023-03-15T08:22:48.545Z,10.83
2023-03-15T08:25:17.699Z,11.74
2023-03-15T08:27:44.375Z,12.48
2023-03-15T08:30:15.095Z,13.14
2023-03-15T08:32:43.208Z,13.89
2023-03-15T08:35:13.739Z,14.50
2023-03-15T08:37:42.096Z,15.13
2023-03-15T08:40:11.136Z,15.60
2023-03-15T08:42:38.147Z,16.16
2023-03-15T08:45:07.078Z,16.46
2023-03-15T08:47:37.378Z,16.82
2023-03-15T08:50:11.532Z,17.16
2023-03-15T08:52:38.334Z,17.44
2023-03-15T08:55:05.411Z,17.77
2023-03-15T08:57:33.006Z,17.95
2023-03-15T09:00:01.970Z,18.13
2023-03-15T09:02:29.017Z,18.43
2023-03-15T09:04:55.533Z,18.73
2023-03-15T09:07:21.979Z,18.78
2023-03-15T09:09:48.695Z,18.83
2023-03-15T09:12:17.901Z,19.10
2023-03-15T09:14:44.515Z,19.19
2023-03-15T09:17:11.177Z,19.18
2023-03-15T09:19:38.145Z,19.33
2023-03-15T09:22:16.222Z,19.53
2023-03-15T09:24:43.625Z,19.66
2023-03-15T09:27:11.752Z,19.82
2023-03-15T09:29:38.148Z,19.87
2023-03-15T09:32:04.819Z,19.96
2023-03-15T09:34:39.932Z,20.11
2023-03-15T09:37:08.589Z,20.26
2023-03-15T09:39:35.030Z,20.16
2023-03-15T09:42:04.740Z,20.18
2023-03-15T09:44:38.447Z,20.39
2023-03-15T09:47:29.809Z,20.64
2023-03-15T09:50:12.532Z,20.81
2023-03-15T09:52:43.829Z,20.84
2023-03-15T09:55:16.955Z,20.85
2023-03-15T09:58:06.767Z,20.73
2023-03-15T10:00:54.834Z,20.89
2023-03-15T10:03:32.384Z,20.89
2023-03-15T10:06:05.877Z,21.01
2023-03-15T10:08:32.578Z,21.16
2023-03-15T10:11:27.017Z,21.33
2023-03-15T10:13:59.891Z,21.40
2023-03-15T10:16:46.778Z,21.49
2023-03-15T10:19:36.903Z,21.30
2023-03-15T10:22:27.551Z,21.13
2023-03-15T10:25:19.656Z,21.46
2023-03-15T10:27:49.418Z,21.64
2023-03-15T10:30:27.600Z,21.58
2023-03-15T10:33:02.199Z,21.45
2023-03-15T10:35:29.643Z,21.23
2023-03-15T10:37:56.164Z,21.10
2023-03-15T10:40:50.444Z,21.10
2023-03-15T10:43:25.405Z,21.05
2023-03-15T10:46:02.471Z,21.09
2023-03-15T10:48:31.494Z,21.04
2023-03-15T10:51:03.090Z,21.00
2023-03-15T10:53:29.550Z,20.79
2023-03-15T10:56:02.128Z,20.79
2023-03-15T10:58:39.578Z,20.66
2023-03-15T11:01:09.539Z,20.48
2023-03-15T11:03:37.773Z,20.28
2023-03-15T11:06:20.101Z,20.27
2023-03-15T11:08:46.544Z,20.02
2023-03-15T11:11:12.926Z,19.88
2023-03-15T11:13:43.073Z,19.57
2023-03-15T11:16:16.553Z,19.58
2023-03-15T11:18:49.031Z,19.50
2023-03-15T11:21:17.464Z,19.29
2023-03-15T11:23:48.089Z,18.98
2023-03-15T11:26:33.589Z,18.80
2023-03-15T11:29:14.786Z,18.82
2023-03-15T11:31:41.319Z,18.91
2023-03-15T11:34:17.647Z,18.90
2023-03-15T11:36:50.875Z,19.01
2023-03-15T11:39:53.713Z,19.24
2023-03-15T11:42:28.510Z,19.44
2023-03-15T11:45:03.273Z,19.52
2023-03-15T11:47:39.793Z,19.46
2023-03-15T11:50:07.066Z,19.49
2023-03-15T11:52:33.732Z,19.59
2023-03-15T11:55:05.988Z,19.58
2023-03-15T11:57:38.000Z,19.53
2023-03-15T12:00:48.300Z,19.40
2023-03-15T12:03:34.377Z,19.30
2023-03-15T12:06:11.368Z,19.09
2023-03-15T12:08:45.529Z,19.02
2023-03-15T12:11:21.759Z,19.04
2023-03-15T12:13:57.222Z,19.13
2023-03-15T12:16:28.002Z,19.04
2023-03-15T12:18:58.874Z,18.98
2023-03-15T12:21:40.090Z,18.90
2023-03-15T12:24:14.981Z,18.82
2023-03-15T12:26:46.639Z,18.71
2023-03-15T12:29:18.286Z,18.59
2023-03-15T12:31:44.821Z,18.46
2023-03-15T12:34:43.141Z,18.34
2023-03-15T12:37:16.622Z,18.20
2023-03-15T12:39:59.754Z,18.17
2023-03-15T12:42:31.844Z,18.11
2023-03-15T12:45:17.051Z,17.98
2023-03-15T12:48:12.710Z,17.96
2023-03-15T12:50:52.791Z,17.90
2023-03-15T12:53:38.737Z,17.86
2023-03-15T12:56:17.078Z,17.79
2023-03-15T12:58:45.258Z,17.83
2023-03-15T13:01:16.173Z,17.69
2023-03-15T13:03:43.580Z,17.50
2023-03-15T13:06:47.909Z,17.43
2023-03-15T13:09:54.578Z,17.46
2023-03-15T13:12:40.851Z,17.47
2023-03-15T13:15:19.277Z,17.47
2023-03-15T13:17:50.708Z,17.45
2023-03-15T13:20:31.080Z,17.30
2023-03-15T13:23:21.034Z,17.18
2023-03-15T13:26:09.243Z,17.31
2023-03-15T13:28:48.379Z,17.40
2023-03-15T13:31:23.966Z,17.29
2023-03-15T13:33:57.400Z,17.17
2023-03-15T13:36:44.306Z,17.04
2023-03-15T13:39:35.290Z,16.97
2023-03-15T13:42:05.517Z,16.87
2023-03-15T13:44:33.656Z,16.89
2023-03-15T13:47:00.730Z,16.81
2023-03-15T13:49:32.798Z,16.80
2023-03-15T13:52:03.762Z,16.84
2023-03-15T13:54:31.495Z,16.76
2023-03-15T13:57:15.260Z,16.59
2023-03-15T13:59:47.598Z,16.51
2023-03-15T14:02:19.832Z,16.48
2023-03-15T14:04:58.185Z,16.41
2023-03-15T14:07:38.486Z,16.36
2023-03-15T14:10:26.536Z,16.31
2023-03-15T14:12:54.077Z,16.21
2023-03-15T14:15:26.101Z,16.10
2023-03-15T14:18:17.188Z,15.97
2023-03-15T14:20:43.813Z,15.97
2023-03-15T14:23:15.256Z,15.88
2023-03-15T14:25:42.446Z,15.69
2023-03-15T14:28:16.227Z,15.59
2023-03-15T14:30:50.558Z,15.53
2023-03-15T14:33:29.237Z,15.48
2023-03-15T14:35:59.932Z,15.43
2023-03-15T14:38:32.400Z,15.40
2023-03-15T14:41:17.568Z,15.37
2023-03-15T14:43:44.242Z,15.28
2023-03-15T14:46:11.074Z,15.09
2023-03-15T14:48:37.572Z,14.96
2023-03-15T14:51:04.298Z,14.77
2023-03-15T14:53:35.985Z,14.70
2023-03-15T14:56:04.487Z,14.69
2023-03-15T14:58:30.941Z,14.63
2023-03-15T15:00:58.082Z,14.52
2023-03-15T15:04:02.616Z,14.44
2023-03-15T15:06:31.928Z,14.36
2023-03-15T15:09:01.455Z,14.26
2023-03-15T15:11:27.968Z,14.14
2023-03-15T15:13:54.846Z,14.00
2023-03-15T15:16:21.560Z,13.90
2023-03-15T15:18:48.608Z,13.80
2023-03-15T15:21:20.901Z,13.82
2023-03-15T15:23:58.001Z,13.84
2023-03-15T15:26:27.951Z,13.87
2023-03-15T15:28:55.346Z,13.84
2023-03-15T15:31:23.876Z,13.84
2023-03-15T15:33:52.253Z,13.76
2023-03-15T15:36:32.589Z,13.62
2023-03-15T15:39:05.755Z,13.62
2023-03-15T15:41:33.153Z,13.60
2023-03-15T15:44:00.096Z,13.47
2023-03-15T15:46:27.137Z,13.41
2023-03-15T15:48:54.453Z,13.36
2023-03-15T15:51:26.605Z,13.36
2023-03-15T15:53:54.714Z,13.38
2023-03-15T15:56:26.654Z,13.43
2023-03-15T15:58:53.375Z,13.41
2023-03-15T16:01:19.765Z,13.40
2023-03-15T16:03:46.276Z,13.38
2023-03-15T16:06:22.286Z,13.39
2023-03-15T16:08:54.154Z,13.30
2023-03-15T16:11:21.162Z,13.29
2023-03-15T16:13:51.695Z,13.28
2023-03-15T16:16:18.881Z,13.19
2023-03-15T16:18:46.818Z,13.09
2023-03-15T16:21:24.735Z,13.08
2023-03-15T16:23:58.696Z,13.05
2023-03-15T16:26:25.358Z,12.98
2023-03-15T16:28:51.999Z,12.98
2023-03-15T16:31:21.927Z,12.85
2023-03-15T16:33:53.158Z,12.84
2023-03-15T16:36:21.684Z,12.85
2023-03-15T16:38:48.590Z,12.86
2023-03-15T16:41:18.088Z,12.77
2023-03-15T16:43:46.732Z,12.63
2023-03-15T16:46:16.824Z,12.53
2023-03-15T16:48:43.471Z,12.50
2023-03-15T16:51:13.080Z,12.48
2023-03-15T16:53:44.561Z,12.39
2023-03-15T16:56:13.479Z,12.28
2023-03-15T16:58:43.029Z,12.27
2023-03-15T17:01:12.732Z,12.26
2023-03-15T17:03:46.514Z,12.22
2023-03-15T17:06:23.347Z,12.19
2023-03-15T17:08:50.965Z,12.14
2023-03-15T17:11:18.367Z,12.14
2023-03-15T17:13:44.898Z,12.06
2023-03-15T17:16:13.188Z,11.96
2023-03-15T17:18:43.644Z,11.91
2023-03-15T17:21:15.823Z,11.88
2023-03-15T17:23:42.564Z,11.79
2023-03-15T17:26:13.358Z,11.69
2023-03-15T17:28:41.043Z,11.63
2023-03-15T17:31:31.331Z,11.57
2023-03-15T17:33:58.286Z,11.53
2023-03-15T17:36:27.943Z,11.50
2023-03-15T17:38:54.744Z,11.42
2023-03-15T17:41:29.923Z,11.37
2023-03-15T17:43:56.952Z,11.30
2023-03-15T17:46:29.899Z,11.26
2023-03-15T17:49:00.617Z,11.26
2023-03-15T17:51:30.360Z,11.21
2023-03-15T17:53:59.381Z,11.23
2023-03-15T17:56:27.031Z,11.20
2023-03-15T17:58:53.706Z,11.13
2023-03-15T18:01:23.437Z,11.09
2023-03-15T18:03:51.324Z,11.00
2023-03-15T18:06:19.923Z,10.96
2023-03-15T18:08:46.903Z,10.94
2023-03-15T18:11:31.920Z,10.95
2023-03-15T18:13:58.551Z,10.95
2023-03-15T18:16:25.275Z,10.92
2023-03-15T18:18:54.770Z,10.89
2023-03-15T18:21:24.326Z,10.84
2023-03-15T18:23:51.479Z,10.79
2023-03-15T18:26:19.284Z,10.79
2023-03-15T18:28:46.796Z,10.75
2023-03-15T18:31:16.065Z,10.72
2023-03-15T18:33:42.804Z,10.64
2023-03-15T18:36:09.843Z,10.62
2023-03-15T18:38:36.585Z,10.57
2023-03-15T18:41:03.185Z,10.56
2023-03-15T18:43:29.716Z,10.53
2023-03-15T18:45:56.267Z,10.46
2023-03-15T18:48:39.659Z,10.42
2023-03-15T18:51:12.091Z,10.38
2023-03-15T18:53:39.231Z,10.27
2023-03-15T18:56:06.010Z,10.19
2023-03-15T18:58:32.532Z,10.15
2023-03-15T19:00:59.162Z,10.04
2023-03-15T19:03:25.717Z,9.95
2023-03-15T19:05:52.237Z,9.94
2023-03-15T19:08:18.733Z,9.89
2023-03-15T19:10:46.895Z,9.88
2023-03-15T19:13:13.304Z,9.90
2023-03-15T19:15:39.809Z,9.90
2023-03-15T19:18:06.259Z,9.90
2023-03-15T19:20:35.080Z,9.88
2023-03-15T19:23:01.565Z,9.84
2023-03-15T19:25:28.108Z,9.82
2023-03-15T19:27:54.578Z,9.73
2023-03-15T19:30:22.366Z,9.71
2023-03-15T19:32:50.504Z,9.69
2023-03-15T19:35:19.212Z,9.65
2023-03-15T19:37:46.598Z,9.56
2023-03-15T19:40:15.540Z,9.53
2023-03-15T19:42:42.394Z,9.46
2023-03-15T19:45:09.964Z,9.46
2023-03-15T19:47:36.551Z,9.48
2023-03-15T19:50:04.088Z,9.42
2023-03-15T19:52:33.073Z,9.37
2023-03-15T19:55:03.668Z,9.36
2023-03-15T19:57:30.078Z,9.39
2023-03-15T19:59:56.449Z,9.28
2023-03-15T20:02:23.092Z,9.22
2023-03-15T20:04:49.580Z,9.17
2023-03-15T20:07:16.669Z,9.11
2023-03-15T20:09:43.333Z,9.16
2023-03-15T20:12:11.744Z,9.16
2023-03-15T20:14:38.404Z,9.16
2023-03-15T20:17:04.830Z,9.13
2023-03-15T20:19:31.500Z,9.10
2023-03-15T20:21:59.141Z,9.06
2023-03-15T20:24:25.570Z,9.05
2023-03-15T20:26:52.406Z,9.03
2023-03-15T20:29:18.918Z,8.97
2023-03-15T20:31:45.441Z,8.98
2023-03-15T20:34:12.210Z,8.96
2023-03-15T20:36:38.791Z,8.94
2023-03-15T20:39:05.511Z,8.88
2023-03-15T20:41:33.182Z,8.76
2023-03-15T20:44:00.312Z,8.76
2023-03-15T20:46:29.533Z,8.76
2023-03-15T20:48:55.943Z,8.79
2023-03-15T20:51:22.368Z,8.79
2023-03-15T20:53:49.181Z,8.78
2023-03-15T20:56:16.474Z,8.79
2023-03-15T20:58:43.167Z,8.73
2023-03-15T21:01:15.106Z,8.74
2023-03-15T21:03:42.278Z,8.73
2023-03-15T21:06:09.233Z,8.74
2023-03-15T21:08:36.189Z,8.71
2023-03-15T21:11:05.923Z,8.63
2023-03-15T21:13:33.423Z,8.64
2023-03-15T21:16:00.593Z,8.63
2023-03-15T21:18:27.394Z,8.57
2023-03-15T21:20:59.482Z,8.59
2023-03-15T21:23:31.380Z,8.52
2023-03-15T21:26:04.084Z,8.45
2023-03-15T21:28:32.104Z,8.41
2023-03-15T21:30:59.297Z,8.38
2023-03-15T21:33:28.826Z,8.37
2023-03-15T21:35:56.445Z,8.35
2023-03-15T21:38:23.444Z,8.38
2023-03-15T21:40:52.763Z,8.35
2023-03-15T21:43:20.227Z,8.31
2023-03-15T21:45:46.966Z,8.25
2023-03-15T21:48:13.628Z,8.23
2023-03-15T21:50:40.221Z,8.21
2023-03-15T21:53:06.635Z,8.06
2023-03-15T21:55:33.630Z,8.12
2023-03-15T21:58:04.694Z,8.10
2023-03-15T22:00:31.254Z,8.08
2023-03-15T22:02:57.784Z,8.09
2023-03-15T22:05:24.715Z,8.03
2023-03-15T22:07:51.168Z,8.00
2023-03-15T22:10:19.583Z,7.98
2023-03-15T22:12:46.045Z,7.93
2023-03-15T22:15:13.257Z,7.85
2023-03-15T22:17:39.939Z,7.83
2023-03-15T22:20:16.329Z,7.81
2023-03-15T22:22:47.293Z,7.84
2023-03-15T22:25:14.043Z,7.84
2023-03-15T22:27:41.741Z,7.83
2023-03-15T22:30:13.442Z,7.83
2023-03-15T22:32:44.128Z,7.75
2023-03-15T22:35:12.596Z,7.72
2023-03-15T22:37:39.373Z,7.69
2023-03-15T22:40:06.921Z,7.67
2023-03-15T22:42:33.311Z,7.61
2023-03-15T22:45:09.625Z,7.61
2023-03-15T22:47:36.032Z,7.60
2023-03-15T22:50:02.557Z,7.55
2023-03-15T22:52:28.992Z,7.48
2023-03-15T22:54:55.368Z,7.49
2023-03-15T22:57:22.238Z,7.49
2023-03-15T22:59:48.611Z,7.45
2023-03-15T23:02:15.397Z,7.39
2023-03-15T23:04:41.872Z,7.42
2023-03-15T23:07:08.342Z,7.35
2023-03-15T23:09:34.749Z,7.31
2023-03-15T23:12:01.169Z,7.28
2023-03-15T23:14:27.635Z,7.28
2023-03-15T23:16:54.065Z,7.23
2023-03-15T23:19:22.350Z,7.21
2023-03-15T23:21:48.738Z,7.22
2023-03-15T23:24:17.145Z,7.20
2023-03-15T23:26:43.914Z,7.19
2023-03-15T23:29:10.694Z,7.19
2023-03-15T23:31:41.691Z,7.17
2023-03-15T23:34:08.800Z,7.14
2023-03-15T23:36:36.295Z,7.19
2023-03-15T23:39:02.684Z,7.20
2023-03-15T23:41:29.154Z,7.22
2023-03-15T23:43:55.642Z,7.23
2023-03-15T23:46:24.305Z,7.24
2023-03-15T23:48:52.355Z,7.19
2023-03-15T23:51:19.725Z,7.20
2023-03-15T23:53:46.139Z,7.16
2023-03-15T23:56:12.567Z,7.16
2023-03-15T23:58:39.130Z,7.16
